createdAt,value
2017-07-22T00:00:20.669Z,997.54
2017-07-22T00:01:22.094Z,997.57
2017-07-22T00:02:23.518Z,997.44
2017-07-22T00:03:24.952Z,997.36
2017-07-22T00:04:26.377Z,997.26
2017-07-22T00:05:27.807Z,997.10
2017-07-22T00:06:29.230Z,997.07
2017-07-22T00:07:30.659Z,997.13
2017-07-22T00:08:32.103Z,997.08
2017-07-22T00:09:33.527Z,997.03
2017-07-22T00:10:34.955Z,997.12
2017-07-22T00:11:36.381Z,997.16
2017-07-22T00:12:37.813Z,997.01
2017-07-22T00:13:39.250Z,996.92
2017-07-22T00:14:40.683Z,996.99
2017-07-22T00:15:42.120Z,996.90
2017-07-22T00:16:43.603Z,996.85
2017-07-22T00:17:45.009Z,996.75
2017-07-22T00:18:46.441Z,996.84
2017-07-22T00:19:47.864Z,996.73
2017-07-22T00:20:49.296Z,996.77
2017-07-22T00:21:50.717Z,996.64
2017-07-22T00:22:52.160Z,996.61
2017-07-22T00:23:53.581Z,996.67
2017-07-22T00:24:55.015Z,996.73
2017-07-22T00:25:56.443Z,996.72
2017-07-22T00:26:57.861Z,996.71
2017-07-22T00:27:59.295Z,996.71
2017-07-22T00:29:00.729Z,996.65
2017-07-22T00:30:02.156Z,996.66
2017-07-22T00:31:03.579Z,996.66
2017-07-22T00:32:05.010Z,996.56
2017-07-22T00:33:06.458Z,996.62
2017-07-22T00:34:07.886Z,996.57
2017-07-22T00:35:09.342Z,996.45
2017-07-22T00:36:10.767Z,996.33
2017-07-22T00:37:12.184Z,996.43
2017-07-22T00:38:13.611Z,996.41
2017-07-22T00:39:15.086Z,996.35
2017-07-22T00:40:16.517Z,996.28
2017-07-22T00:41:17.954Z,996.25
2017-07-22T00:42:19.379Z,996.18
2017-07-22T00:43:20.809Z,996.07
2017-07-22T00:44:22.246Z,996.07
2017-07-22T00:45:23.671Z,995.99
2017-07-22T00:46:25.102Z,995.98
2017-07-22T00:47:26.627Z,995.85
2017-07-22T00:48:28.048Z,995.73
2017-07-22T00:49:29.478Z,995.78
2017-07-22T00:50:30.910Z,995.94
2017-07-22T00:51:32.368Z,995.82
2017-07-22T00:52:33.788Z,995.81
2017-07-22T00:53:35.225Z,995.82
2017-07-22T00:54:36.647Z,995.78
2017-07-22T00:55:38.065Z,995.72
2017-07-22T00:56:39.495Z,995.93
2017-07-22T00:57:40.915Z,995.80
2017-07-22T00:58:42.344Z,995.65
2017-07-22T00:59:43.776Z,995.67
2017-07-22T01:00:45.199Z,995.67
2017-07-22T01:01:46.625Z,995.65
2017-07-22T01:02:48.053Z,995.60
2017-07-22T01:03:49.475Z,995.63
2017-07-22T01:04:50.900Z,995.64
2017-07-22T01:05:52.322Z,995.65
2017-07-22T01:06:53.750Z,995.88
2017-07-22T01:07:55.182Z,995.86
2017-07-22T01:08:56.609Z,995.82
2017-07-22T01:09:58.033Z,995.80
2017-07-22T01:10:59.465Z,995.77
2017-07-22T01:12:00.896Z,996.00
2017-07-22T01:13:02.320Z,995.92
2017-07-22T01:14:03.748Z,996.07
2017-07-22T01:15:05.172Z,996.04
2017-07-22T01:16:06.601Z,995.95
2017-07-22T01:17:08.027Z,996.04
2017-07-22T01:18:09.520Z,995.88
2017-07-22T01:19:10.948Z,995.82
2017-07-22T01:20:12.368Z,995.74
2017-07-22T01:21:13.795Z,995.88
2017-07-22T01:22:15.219Z,995.89
2017-07-22T01:23:16.654Z,995.76
2017-07-22T01:24:18.087Z,995.64
2017-07-22T01:25:19.508Z,995.51
2017-07-22T01:26:20.935Z,995.46
2017-07-22T01:27:22.359Z,995.51
2017-07-22T01:28:23.794Z,995.42
2017-07-22T01:29:25.222Z,995.43
2017-07-22T01:30:26.657Z,995.35
2017-07-22T01:31:28.083Z,995.44
2017-07-22T01:32:29.523Z,995.43
2017-07-22T01:33:30.955Z,995.10
2017-07-22T01:34:32.381Z,994.77
2017-07-22T01:35:33.806Z,994.79
2017-07-22T01:36:35.232Z,994.93
2017-07-22T01:37:36.653Z,995.00
2017-07-22T01:38:38.086Z,995.11
2017-07-22T01:39:39.512Z,995.03
2017-07-22T01:40:40.945Z,994.94
2017-07-22T01:41:42.365Z,994.66
2017-07-22T01:42:43.797Z,994.57
2017-07-22T01:43:45.220Z,994.16
2017-07-22T01:44:46.650Z,993.78
2017-07-22T01:45:48.089Z,993.56
2017-07-22T01:46:49.513Z,993.44
2017-07-22T01:47:50.945Z,992.96
2017-07-22T01:48:52.367Z,992.63
2017-07-22T01:49:53.791Z,992.28
2017-07-22T01:50:55.223Z,992.05
2017-07-22T01:51:56.658Z,991.84
2017-07-22T01:52:58.088Z,991.84
2017-07-22T01:53:59.510Z,991.72
2017-07-22T01:55:00.952Z,991.66
2017-07-22T01:56:02.439Z,991.54
2017-07-22T01:57:03.864Z,991.48
2017-07-22T01:58:05.289Z,991.24
2017-07-22T01:59:06.718Z,991.12
2017-07-22T02:00:08.150Z,990.89
2017-07-22T02:01:09.569Z,990.76
2017-07-22T02:02:10.989Z,990.70
2017-07-22T02:03:12.415Z,990.56
2017-07-22T02:04:13.843Z,990.54
2017-07-22T02:05:15.268Z,990.51
2017-07-22T02:06:16.694Z,990.42
2017-07-22T02:07:18.114Z,990.37
2017-07-22T02:08:19.550Z,990.29
2017-07-22T02:09:20.974Z,990.18
2017-07-22T02:10:22.398Z,990.17
2017-07-22T02:11:23.817Z,990.11
2017-07-22T02:12:25.257Z,990.09
2017-07-22T02:13:26.689Z,990.07
2017-07-22T02:14:28.102Z,990.04
2017-07-22T02:15:29.529Z,989.99
2017-07-22T02:16:30.962Z,989.91
2017-07-22T02:17:32.388Z,989.90
2017-07-22T02:18:33.818Z,989.91
2017-07-22T02:19:35.240Z,989.97
2017-07-22T02:20:36.667Z,989.92
2017-07-22T02:21:38.097Z,989.93
2017-07-22T02:22:40.333Z,989.92
2017-07-22T02:23:42.032Z,989.93
2017-07-22T02:24:43.506Z,989.90
2017-07-22T02:25:44.929Z,989.89
2017-07-22T02:26:46.357Z,989.88
2017-07-22T02:27:47.787Z,989.96
2017-07-22T02:28:49.211Z,989.95
2017-07-22T02:29:50.638Z,990.00
2017-07-22T02:30:52.062Z,989.89
2017-07-22T02:31:53.491Z,989.90
2017-07-22T02:32:54.924Z,989.93
2017-07-22T02:33:56.346Z,989.95
2017-07-22T02:34:57.770Z,989.87
2017-07-22T02:35:59.197Z,989.92
2017-07-22T02:37:00.629Z,989.96
2017-07-22T02:38:02.052Z,990.00
2017-07-22T02:39:03.476Z,990.06
2017-07-22T02:40:04.911Z,989.98
2017-07-22T02:41:06.335Z,990.00
2017-07-22T02:42:07.757Z,990.02
2017-07-22T02:43:09.176Z,989.96
2017-07-22T02:44:10.609Z,989.99
2017-07-22T02:45:12.030Z,989.99
2017-07-22T02:46:13.459Z,989.98
2017-07-22T02:47:14.874Z,989.97
2017-07-22T02:48:16.306Z,989.92
2017-07-22T02:49:17.732Z,989.90
2017-07-22T02:50:19.157Z,990.00
2017-07-22T02:51:20.588Z,989.97
2017-07-22T02:52:22.005Z,989.96
2017-07-22T02:53:23.433Z,989.97
2017-07-22T02:54:24.860Z,990.02
2017-07-22T02:55:26.288Z,989.98
2017-07-22T02:56:27.710Z,989.99
2017-07-22T02:57:29.144Z,989.95
2017-07-22T02:58:30.567Z,989.95
2017-07-22T02:59:31.996Z,989.92
2017-07-22T03:00:33.422Z,989.92
2017-07-22T03:01:34.900Z,989.91
2017-07-22T03:02:36.330Z,989.90
2017-07-22T03:03:37.747Z,989.90
2017-07-22T03:04:39.179Z,989.89
2017-07-22T03:05:40.694Z,989.81
2017-07-22T03:06:42.117Z,989.82
2017-07-22T03:07:43.555Z,989.88
2017-07-22T03:08:44.979Z,989.87
2017-07-22T03:09:46.406Z,989.90
2017-07-22T03:10:47.832Z,989.90
2017-07-22T03:11:49.283Z,989.92
2017-07-22T03:12:50.718Z,989.89
2017-07-22T03:13:52.140Z,989.87
2017-07-22T03:14:53.571Z,989.88
2017-07-22T03:15:55.002Z,989.89
2017-07-22T03:16:56.550Z,989.94
2017-07-22T03:17:57.978Z,989.97
2017-07-22T03:18:59.399Z,989.98
2017-07-22T03:20:00.826Z,989.98
2017-07-22T03:21:02.249Z,990.01
2017-07-22T03:22:03.684Z,989.99
2017-07-22T03:23:05.107Z,989.97
2017-07-22T03:24:07.142Z,990.01
2017-07-22T03:25:08.566Z,990.00
2017-07-22T03:26:09.987Z,990.05
2017-07-22T03:27:11.416Z,989.98
2017-07-22T03:28:12.849Z,989.96
2017-07-22T03:29:14.283Z,989.93
2017-07-22T03:30:15.718Z,989.89
2017-07-22T03:31:17.274Z,989.86
2017-07-22T03:32:18.669Z,989.83
2017-07-22T03:33:20.088Z,989.78
2017-07-22T03:34:21.516Z,989.82
2017-07-22T03:35:22.943Z,989.74
2017-07-22T03:36:24.364Z,989.77
2017-07-22T03:37:25.792Z,989.72
2017-07-22T03:38:27.229Z,989.66
2017-07-22T03:39:28.649Z,989.72
2017-07-22T03:40:30.095Z,989.73
2017-07-22T03:41:31.501Z,989.65
2017-07-22T03:42:32.923Z,989.67
2017-07-22T03:43:34.353Z,989.66
2017-07-22T03:44:35.779Z,989.64
2017-07-22T03:45:37.200Z,989.65
2017-07-22T03:46:38.630Z,989.67
2017-07-22T03:47:40.057Z,989.73
2017-07-22T03:48:41.483Z,989.66
2017-07-22T03:49:42.907Z,989.65
2017-07-22T03:50:44.332Z,989.65
2017-07-22T03:51:45.754Z,989.66
2017-07-22T03:52:47.178Z,989.65
2017-07-22T03:53:48.604Z,989.63
2017-07-22T03:54:50.028Z,989.60
2017-07-22T03:55:51.461Z,989.60
2017-07-22T03:56:52.892Z,989.56
2017-07-22T03:57:54.318Z,989.62
2017-07-22T03:58:55.744Z,989.58
2017-07-22T03:59:57.174Z,989.61
2017-07-22T04:00:58.604Z,989.62
2017-07-22T04:02:00.041Z,989.60
2017-07-22T04:03:01.463Z,989.61
2017-07-22T04:04:02.953Z,989.62
2017-07-22T04:05:04.377Z,989.60
2017-07-22T04:06:05.812Z,989.62
2017-07-22T04:07:07.240Z,989.64
2017-07-22T04:08:08.670Z,989.63
2017-07-22T04:09:10.098Z,989.64
2017-07-22T04:10:11.520Z,989.63
2017-07-22T04:11:12.952Z,989.68
2017-07-22T04:12:14.379Z,989.71
2017-07-22T04:13:15.811Z,989.74
2017-07-22T04:14:17.237Z,989.81
2017-07-22T04:15:18.663Z,989.80
2017-07-22T04:16:20.092Z,989.78
2017-07-22T04:17:21.522Z,989.84
2017-07-22T04:18:22.955Z,989.81
2017-07-22T04:19:24.379Z,989.81
2017-07-22T04:20:25.805Z,989.80
2017-07-22T04:21:27.226Z,989.78
2017-07-22T04:22:28.648Z,989.73
2017-07-22T04:23:30.075Z,989.71
2017-07-22T04:24:31.497Z,989.68
2017-07-22T04:25:32.927Z,989.69
2017-07-22T04:26:34.355Z,989.66
2017-07-22T04:27:35.780Z,989.64
2017-07-22T04:28:37.211Z,989.71
2017-07-22T04:29:38.637Z,989.67
2017-07-22T04:30:40.065Z,989.63
2017-07-22T04:31:42.431Z,989.66
2017-07-22T04:32:43.855Z,989.75
2017-07-22T04:33:45.294Z,989.74
2017-07-22T04:34:46.720Z,989.74
2017-07-22T04:35:48.147Z,989.76
2017-07-22T04:36:49.583Z,989.80
2017-07-22T04:37:51.008Z,989.81
2017-07-22T04:38:52.434Z,989.82
2017-07-22T04:39:53.860Z,989.87
2017-07-22T04:40:55.284Z,989.88
2017-07-22T04:41:56.712Z,989.84
2017-07-22T04:42:58.141Z,989.82
2017-07-22T04:43:59.564Z,989.87
2017-07-22T04:45:00.992Z,989.86
2017-07-22T04:46:02.416Z,989.83
2017-07-22T04:47:03.846Z,989.82
2017-07-22T04:48:05.269Z,989.88
2017-07-22T04:49:06.693Z,989.89
2017-07-22T04:50:08.120Z,989.88
2017-07-22T04:51:09.545Z,989.87
2017-07-22T04:52:10.977Z,989.83
2017-07-22T04:53:12.406Z,989.88
2017-07-22T04:54:13.836Z,989.92
2017-07-22T04:55:15.265Z,989.87
2017-07-22T04:56:16.692Z,989.90
2017-07-22T04:57:18.119Z,990.01
2017-07-22T04:58:19.548Z,990.01
2017-07-22T04:59:20.976Z,990.00
2017-07-22T05:00:22.410Z,990.00
2017-07-22T05:01:23.840Z,990.06
2017-07-22T05:02:25.292Z,990.06
2017-07-22T05:03:26.729Z,990.09
2017-07-22T05:04:28.150Z,990.14
2017-07-22T05:05:29.574Z,990.16
2017-07-22T05:06:31.059Z,990.16
2017-07-22T05:07:32.490Z,990.20
2017-07-22T05:08:33.916Z,990.23
2017-07-22T05:09:35.347Z,990.28
2017-07-22T05:10:36.776Z,990.28
2017-07-22T05:11:38.201Z,990.29
2017-07-22T05:12:39.638Z,990.38
2017-07-22T05:13:41.062Z,990.38
2017-07-22T05:14:42.511Z,990.37
2017-07-22T05:15:43.939Z,990.39
2017-07-22T05:16:45.365Z,990.41
2017-07-22T05:17:46.797Z,990.38
2017-07-22T05:18:48.227Z,990.37
2017-07-22T05:19:49.656Z,990.40
2017-07-22T05:20:51.077Z,990.44
2017-07-22T05:21:52.510Z,990.40
2017-07-22T05:22:53.943Z,990.45
2017-07-22T05:23:55.427Z,990.43
2017-07-22T05:24:56.846Z,990.51
2017-07-22T05:25:58.291Z,990.49
2017-07-22T05:26:59.725Z,990.47
2017-07-22T05:28:01.154Z,990.49
2017-07-22T05:29:02.579Z,990.47
2017-07-22T05:30:04.007Z,990.50
2017-07-22T05:31:05.434Z,990.53
2017-07-22T05:32:06.869Z,990.54
2017-07-22T05:33:08.293Z,990.52
2017-07-22T05:34:09.728Z,990.54
2017-07-22T05:35:11.156Z,990.53
2017-07-22T05:36:12.579Z,990.56
2017-07-22T05:37:14.011Z,990.53
2017-07-22T05:38:15.460Z,990.55
2017-07-22T05:39:17.007Z,990.61
2017-07-22T05:40:18.439Z,990.61
2017-07-22T05:41:19.869Z,990.63
2017-07-22T05:42:21.293Z,990.69
2017-07-22T05:43:22.718Z,990.72
2017-07-22T05:44:24.146Z,990.72
2017-07-22T05:45:25.571Z,990.80
2017-07-22T05:46:26.998Z,990.85
2017-07-22T05:47:28.432Z,990.89
2017-07-22T05:48:29.863Z,990.95
2017-07-22T05:49:31.292Z,990.93
2017-07-22T05:50:32.719Z,990.96
2017-07-22T05:51:34.154Z,990.97
2017-07-22T05:52:35.592Z,990.97
2017-07-22T05:53:37.023Z,990.94
2017-07-22T05:54:38.452Z,990.89
2017-07-22T05:55:39.875Z,990.90
2017-07-22T05:56:41.305Z,990.96
2017-07-22T05:57:42.738Z,990.95
2017-07-22T05:58:44.172Z,990.97
2017-07-22T05:59:45.598Z,990.97
2017-07-22T06:00:47.033Z,991.03
2017-07-22T06:01:48.458Z,991.06
2017-07-22T06:02:49.884Z,991.05
2017-07-22T06:03:51.308Z,991.01
2017-07-22T06:04:52.739Z,990.99
2017-07-22T06:05:54.177Z,991.04
2017-07-22T06:06:55.605Z,991.00
2017-07-22T06:07:57.032Z,991.00
2017-07-22T06:08:58.464Z,991.05
2017-07-22T06:09:59.891Z,991.08
2017-07-22T06:11:01.323Z,991.06
2017-07-22T06:12:02.758Z,991.02
2017-07-22T06:13:04.185Z,991.05
2017-07-22T06:14:05.616Z,991.09
2017-07-22T06:15:07.045Z,991.12
2017-07-22T06:16:08.477Z,991.12
2017-07-22T06:17:09.910Z,991.21
2017-07-22T06:18:11.333Z,991.19
2017-07-22T06:19:12.765Z,991.18
2017-07-22T06:20:14.186Z,991.19
2017-07-22T06:21:15.616Z,991.19
2017-07-22T06:22:17.059Z,991.22
2017-07-22T06:23:18.475Z,991.24
2017-07-22T06:24:19.905Z,991.26
2017-07-22T06:25:21.338Z,991.25
2017-07-22T06:26:22.763Z,991.24
2017-07-22T06:27:24.191Z,991.25
2017-07-22T06:28:25.622Z,991.26
2017-07-22T06:29:27.107Z,991.30
2017-07-22T06:30:28.532Z,991.29
2017-07-22T06:31:29.980Z,991.27
2017-07-22T06:32:31.388Z,991.25
2017-07-22T06:33:32.818Z,991.26
2017-07-22T06:34:34.248Z,991.28
2017-07-22T06:35:35.673Z,991.25
2017-07-22T06:36:37.110Z,991.21
2017-07-22T06:37:38.577Z,991.19
2017-07-22T06:38:40.004Z,991.26
2017-07-22T06:39:41.432Z,991.21
2017-07-22T06:40:42.873Z,991.24
2017-07-22T06:41:44.298Z,991.25
2017-07-22T06:42:45.729Z,991.31
2017-07-22T06:43:47.263Z,991.27
2017-07-22T06:44:48.697Z,991.29
2017-07-22T06:45:50.127Z,991.27
2017-07-22T06:46:51.563Z,991.26
2017-07-22T06:47:52.995Z,991.35
2017-07-22T06:48:54.510Z,991.30
2017-07-22T06:49:55.939Z,991.34
2017-07-22T06:50:57.400Z,991.35
2017-07-22T06:51:59.686Z,991.37
2017-07-22T06:53:01.113Z,991.38
2017-07-22T06:54:02.540Z,991.34
2017-07-22T06:55:03.972Z,991.30
2017-07-22T06:56:05.412Z,991.30
2017-07-22T06:57:06.842Z,991.31
2017-07-22T06:58:08.268Z,991.36
2017-07-22T06:59:09.702Z,991.37
2017-07-22T07:00:11.130Z,991.50
2017-07-22T07:01:12.555Z,991.53
2017-07-22T07:02:13.987Z,991.66
2017-07-22T07:03:15.421Z,991.72
2017-07-22T07:04:16.852Z,991.70
2017-07-22T07:05:18.288Z,991.74
2017-07-22T07:06:19.728Z,991.73
2017-07-22T07:07:21.169Z,991.72
2017-07-22T07:08:22.598Z,991.78
2017-07-22T07:09:24.031Z,991.84
2017-07-22T07:10:25.466Z,991.83
2017-07-22T07:11:26.895Z,991.92
2017-07-22T07:12:28.333Z,991.92
2017-07-22T07:13:29.753Z,991.86
2017-07-22T07:14:31.184Z,991.91
2017-07-22T07:15:32.607Z,991.90
2017-07-22T07:16:34.039Z,991.94
2017-07-22T07:17:35.466Z,991.92
2017-07-22T07:18:36.896Z,991.96
2017-07-22T07:19:38.325Z,991.90
2017-07-22T07:20:39.767Z,991.94
2017-07-22T07:21:41.197Z,991.92
2017-07-22T07:22:42.629Z,991.97
2017-07-22T07:23:44.058Z,991.97
2017-07-22T07:24:45.483Z,992.01
2017-07-22T07:25:46.918Z,991.98
2017-07-22T07:26:48.349Z,991.99
2017-07-22T07:27:49.778Z,992.06
2017-07-22T07:28:51.206Z,992.17
2017-07-22T07:29:52.640Z,992.21
2017-07-22T07:30:54.072Z,992.34
2017-07-22T07:31:55.500Z,992.38
2017-07-22T07:32:56.935Z,992.39
2017-07-22T07:33:58.363Z,992.49
2017-07-22T07:34:59.808Z,992.50
2017-07-22T07:36:01.236Z,992.55
2017-07-22T07:37:02.668Z,992.64
2017-07-22T07:38:04.095Z,992.59
2017-07-22T07:39:05.529Z,992.61
2017-07-22T07:40:06.963Z,992.66
2017-07-22T07:41:08.394Z,992.67
2017-07-22T07:42:09.823Z,992.69
2017-07-22T07:43:11.255Z,992.64
2017-07-22T07:44:12.690Z,992.65
2017-07-22T07:45:14.121Z,992.62
2017-07-22T07:46:15.550Z,992.58
2017-07-22T07:47:16.978Z,992.55
2017-07-22T07:48:18.399Z,992.67
2017-07-22T07:49:19.833Z,992.58
2017-07-22T07:50:21.352Z,992.55
2017-07-22T07:51:22.778Z,992.61
2017-07-22T07:52:24.226Z,992.63
2017-07-22T07:53:25.660Z,992.69
2017-07-22T07:54:27.096Z,992.68
2017-07-22T07:55:28.530Z,992.72
2017-07-22T07:56:29.958Z,992.76
2017-07-22T07:57:31.404Z,992.69
2017-07-22T07:58:32.833Z,992.67
2017-07-22T07:59:34.273Z,992.75
2017-07-22T08:00:35.702Z,992.77
2017-07-22T08:01:37.129Z,992.92
2017-07-22T08:02:38.560Z,992.93
2017-07-22T08:03:39.986Z,992.98
2017-07-22T08:04:42.422Z,993.05
2017-07-22T08:05:43.855Z,993.08
2017-07-22T08:06:45.285Z,993.07
2017-07-22T08:07:46.721Z,993.03
2017-07-22T08:08:48.153Z,993.08
2017-07-22T08:09:49.594Z,993.03
2017-07-22T08:10:51.035Z,993.11
2017-07-22T08:11:52.487Z,993.11
2017-07-22T08:12:53.905Z,993.04
2017-07-22T08:13:55.338Z,993.15
2017-07-22T08:14:56.769Z,993.26
2017-07-22T08:15:58.212Z,993.35
2017-07-22T08:16:59.636Z,993.36
2017-07-22T08:18:01.074Z,993.39
2017-07-22T08:19:02.515Z,993.43
2017-07-22T08:20:03.950Z,993.42
2017-07-22T08:21:05.382Z,993.46
2017-07-22T08:22:06.825Z,993.47
2017-07-22T08:23:08.259Z,993.44
2017-07-22T08:24:09.697Z,993.46
2017-07-22T08:25:11.125Z,993.47
2017-07-22T08:26:12.566Z,993.60
2017-07-22T08:27:14.013Z,993.62
2017-07-22T08:28:15.449Z,993.66
2017-07-22T08:29:16.883Z,993.64
2017-07-22T08:30:18.310Z,993.71
2017-07-22T08:31:19.740Z,993.83
2017-07-22T08:32:21.173Z,993.88
2017-07-22T08:33:22.624Z,993.80
2017-07-22T08:34:24.057Z,993.86
2017-07-22T08:35:25.486Z,993.95
2017-07-22T08:36:27.534Z,994.21
2017-07-22T08:37:29.212Z,994.37
2017-07-22T08:38:30.646Z,994.70
2017-07-22T08:39:32.088Z,994.34
2017-07-22T08:40:33.513Z,994.44
2017-07-22T08:41:34.945Z,994.45
2017-07-22T08:42:36.375Z,994.55
2017-07-22T08:43:37.799Z,994.21
2017-07-22T08:44:39.233Z,994.29
2017-07-22T08:45:40.663Z,994.40
2017-07-22T08:46:42.095Z,994.61
2017-07-22T08:47:43.528Z,994.62
2017-07-22T08:48:44.965Z,994.58
2017-07-22T08:49:46.400Z,994.62
2017-07-22T08:50:47.826Z,994.40
2017-07-22T08:51:49.263Z,994.35
2017-07-22T08:52:50.697Z,994.68
2017-07-22T08:53:52.134Z,994.70
2017-07-22T08:54:53.567Z,994.71
2017-07-22T08:55:55.003Z,994.81
2017-07-22T08:56:56.442Z,995.08
2017-07-22T08:57:57.875Z,994.82
2017-07-22T08:58:59.300Z,994.92
2017-07-22T09:00:00.744Z,995.32
2017-07-22T09:01:02.174Z,994.86
2017-07-22T09:02:03.604Z,994.90
2017-07-22T09:03:05.033Z,994.82
2017-07-22T09:04:07.211Z,994.63
2017-07-22T09:05:08.645Z,994.79
2017-07-22T09:06:10.079Z,994.83
2017-07-22T09:07:11.512Z,995.14
2017-07-22T09:08:12.950Z,995.04
2017-07-22T09:09:14.389Z,994.88
2017-07-22T09:10:15.823Z,994.87
2017-07-22T09:11:17.257Z,994.81
2017-07-22T09:12:18.694Z,994.83
2017-07-22T09:13:20.121Z,995.02
2017-07-22T09:14:21.558Z,995.35
2017-07-22T09:15:23.014Z,995.27
2017-07-22T09:16:24.444Z,995.33
2017-07-22T09:17:25.888Z,995.91
2017-07-22T09:18:27.321Z,995.94
2017-07-22T09:19:28.770Z,995.60
2017-07-22T09:20:30.199Z,995.24
2017-07-22T09:21:31.631Z,995.58
2017-07-22T09:22:33.064Z,995.34
2017-07-22T09:23:34.488Z,995.57
2017-07-22T09:24:35.931Z,995.66
2017-07-22T09:25:37.373Z,995.86
2017-07-22T09:26:38.818Z,996.40
2017-07-22T09:27:40.247Z,996.11
2017-07-22T09:28:41.681Z,996.05
2017-07-22T09:29:43.110Z,996.29
2017-07-22T09:30:44.627Z,996.50
2017-07-22T09:31:46.064Z,996.22
2017-07-22T09:32:47.492Z,996.12
2017-07-22T09:33:48.919Z,996.20
2017-07-22T09:34:50.363Z,995.44
2017-07-22T09:35:51.809Z,996.23
2017-07-22T09:36:53.240Z,997.07
2017-07-22T09:37:54.686Z,996.47
2017-07-22T09:38:56.115Z,996.37
2017-07-22T09:39:57.556Z,996.38
2017-07-22T09:40:59.074Z,996.63
2017-07-22T09:42:00.516Z,996.89
2017-07-22T09:43:01.950Z,997.04
2017-07-22T09:44:03.396Z,996.67
2017-07-22T09:45:04.824Z,997.20
2017-07-22T09:46:06.264Z,997.01
2017-07-22T09:47:07.690Z,997.42
2017-07-22T09:48:09.190Z,997.71
2017-07-22T09:49:10.624Z,997.53
2017-07-22T09:50:12.063Z,997.52
2017-07-22T09:51:13.521Z,997.24
2017-07-22T09:52:14.930Z,997.46
2017-07-22T09:53:16.370Z,998.56
2017-07-22T09:54:17.810Z,997.84
2017-07-22T09:55:19.254Z,997.44
2017-07-22T09:56:21.295Z,997.51
2017-07-22T09:57:22.738Z,997.59
2017-07-22T09:58:25.132Z,997.69
2017-07-22T09:59:26.039Z,998.06
2017-07-22T10:00:27.473Z,998.74
2017-07-22T10:01:28.907Z,997.91
2017-07-22T10:02:30.351Z,997.59
2017-07-22T10:03:31.786Z,998.05
2017-07-22T10:04:33.224Z,998.05
2017-07-22T10:05:34.666Z,998.98
2017-07-22T10:06:36.285Z,997.95
2017-07-22T10:07:37.715Z,998.91
2017-07-22T10:08:39.152Z,999.68
2017-07-22T10:09:40.593Z,999.51
2017-07-22T10:10:42.020Z,999.32
2017-07-22T10:11:43.454Z,998.98
2017-07-22T10:12:44.892Z,998.98
2017-07-22T10:13:46.320Z,998.86
2017-07-22T10:14:47.760Z,999.32
2017-07-22T10:15:49.206Z,999.70
2017-07-22T10:16:50.641Z,999.36
2017-07-22T10:17:52.072Z,999.57
2017-07-22T10:18:53.527Z,1000.10
2017-07-22T10:19:54.969Z,1000.04
2017-07-22T10:20:56.404Z,1001.03
2017-07-22T10:21:57.848Z,1000.70
2017-07-22T10:22:59.283Z,1001.07
2017-07-22T10:24:00.722Z,1001.24
2017-07-22T10:25:02.156Z,1001.52
2017-07-22T10:26:03.591Z,1001.05
2017-07-22T10:27:05.029Z,1001.05
2017-07-22T10:28:06.468Z,1001.32
2017-07-22T10:29:07.903Z,1000.67
2017-07-22T10:30:09.343Z,1000.59
2017-07-22T10:31:10.784Z,1000.07
2017-07-22T10:32:12.232Z,999.90
2017-07-22T10:33:13.649Z,1000.22
2017-07-22T10:34:15.097Z,1000.77
2017-07-22T10:35:16.531Z,1001.15
2017-07-22T10:36:17.967Z,1000.80
2017-07-22T10:37:19.405Z,1001.26
2017-07-22T10:38:20.836Z,1001.47
2017-07-22T10:39:22.273Z,1001.50
2017-07-22T10:40:23.716Z,1001.25
2017-07-22T10:41:25.155Z,1001.63
2017-07-22T10:42:26.594Z,1001.88
2017-07-22T10:43:28.034Z,1001.77
2017-07-22T10:44:29.476Z,1001.90
2017-07-22T10:45:30.920Z,1001.29
2017-07-22T10:46:32.352Z,1001.15
2017-07-22T10:47:33.788Z,1001.51
2017-07-22T10:48:35.221Z,1002.00
2017-07-22T10:49:36.658Z,1002.07
2017-07-22T10:50:38.094Z,1001.78
2017-07-22T10:51:39.527Z,1001.24
2017-07-22T10:52:40.974Z,1001.73
2017-07-22T10:53:42.421Z,1002.09
2017-07-22T10:54:43.856Z,1002.21
2017-07-22T10:55:45.295Z,1001.90
2017-07-22T10:56:46.736Z,1001.90
2017-07-22T10:57:48.169Z,1001.96
2017-07-22T10:58:49.600Z,1002.09
2017-07-22T10:59:51.049Z,1001.93
2017-07-22T11:00:52.473Z,1001.91
2017-07-22T11:01:53.910Z,1002.02
2017-07-22T11:02:55.341Z,1002.03
2017-07-22T11:03:56.799Z,1002.03
2017-07-22T11:04:58.227Z,1001.88
2017-07-22T11:05:59.668Z,1002.13
2017-07-22T11:07:01.100Z,1002.04
2017-07-22T11:08:02.536Z,1002.06
2017-07-22T11:09:03.993Z,1002.17
2017-07-22T11:10:05.414Z,1002.11
2017-07-22T11:11:06.848Z,1002.12
2017-07-22T11:12:08.284Z,1002.22
2017-07-22T11:13:09.722Z,1002.21
2017-07-22T11:14:11.153Z,1002.13
2017-07-22T11:15:12.594Z,1002.24
2017-07-22T11:16:14.026Z,1002.19
2017-07-22T11:17:15.460Z,1002.13
2017-07-22T11:18:16.906Z,1002.17
2017-07-22T11:19:18.340Z,1002.16
2017-07-22T11:20:19.777Z,1002.09
2017-07-22T11:21:21.214Z,1002.19
2017-07-22T11:22:22.658Z,1002.15
2017-07-22T11:23:24.105Z,1002.14
2017-07-22T11:24:25.539Z,1002.22
2017-07-22T11:25:26.971Z,1002.22
2017-07-22T11:26:28.414Z,1002.16
2017-07-22T11:27:29.846Z,1002.20
2017-07-22T11:28:31.283Z,1002.14
2017-07-22T11:29:32.723Z,1002.02
2017-07-22T11:30:34.162Z,1001.99
2017-07-22T11:31:35.603Z,1002.08
2017-07-22T11:32:37.038Z,1002.02
2017-07-22T11:33:38.483Z,1001.91
2017-07-22T11:34:39.921Z,1001.90
2017-07-22T11:35:41.357Z,1001.91
2017-07-22T11:36:42.789Z,1001.73
2017-07-22T11:37:44.224Z,1001.79
2017-07-22T11:38:45.661Z,1001.73
2017-07-22T11:39:47.095Z,1001.46
2017-07-22T11:40:48.533Z,1001.85
2017-07-22T11:41:49.979Z,1001.82
2017-07-22T11:42:51.417Z,1001.59
2017-07-22T11:43:52.856Z,1001.56
2017-07-22T11:44:54.290Z,1001.41
2017-07-22T11:45:55.726Z,1001.50
2017-07-22T11:46:57.166Z,1001.74
2017-07-22T11:47:58.611Z,1001.84
2017-07-22T11:49:00.042Z,1001.93
2017-07-22T11:50:01.478Z,1001.97
2017-07-22T11:51:02.910Z,1001.94
2017-07-22T11:52:04.358Z,1001.99
2017-07-22T11:53:05.798Z,1001.97
2017-07-22T11:54:07.233Z,1001.90
2017-07-22T11:55:08.670Z,1001.99
2017-07-22T11:56:10.122Z,1001.85
2017-07-22T11:57:11.554Z,1001.96
2017-07-22T11:58:12.991Z,1001.97
2017-07-22T11:59:14.429Z,1002.14
2017-07-22T12:00:15.864Z,1002.11
2017-07-22T12:01:17.301Z,1002.10
2017-07-22T12:02:18.735Z,1002.09
2017-07-22T12:03:20.171Z,1002.01
2017-07-22T12:04:21.626Z,1001.98
2017-07-22T12:05:23.057Z,1001.90
2017-07-22T12:06:24.498Z,1001.71
2017-07-22T12:07:25.939Z,1001.74
2017-07-22T12:08:27.381Z,1001.80
2017-07-22T12:09:28.826Z,1001.74
2017-07-22T12:10:30.263Z,1001.80
2017-07-22T12:11:31.698Z,1001.37
2017-07-22T12:12:33.132Z,1001.61
2017-07-22T12:13:34.581Z,1001.33
2017-07-22T12:14:36.016Z,1001.05
2017-07-22T12:15:37.447Z,1001.23
2017-07-22T12:16:38.880Z,1001.15
2017-07-22T12:17:40.315Z,1001.68
2017-07-22T12:18:41.755Z,1001.39
2017-07-22T12:19:43.188Z,1001.33
2017-07-22T12:20:44.619Z,1000.96
2017-07-22T12:21:46.062Z,1001.20
2017-07-22T12:22:47.502Z,1000.57
2017-07-22T12:23:48.932Z,1001.15
2017-07-22T12:24:50.368Z,1001.27
2017-07-22T12:25:51.800Z,1000.30
2017-07-22T12:26:53.239Z,1001.38
2017-07-22T12:27:54.679Z,1000.56
2017-07-22T12:28:56.116Z,1000.28
2017-07-22T12:29:57.558Z,1000.37
2017-07-22T12:30:58.991Z,999.96
2017-07-22T12:32:00.430Z,999.53
2017-07-22T12:33:01.866Z,1000.07
2017-07-22T12:34:03.316Z,1000.56
2017-07-22T12:35:04.744Z,1001.35
2017-07-22T12:36:06.178Z,1001.00
2017-07-22T12:37:07.624Z,1001.51
2017-07-22T12:38:09.062Z,1001.67
2017-07-22T12:39:10.506Z,1001.32
2017-07-22T12:40:11.935Z,1001.79
2017-07-22T12:41:13.370Z,1001.74
2017-07-22T12:42:14.803Z,1001.61